sensor_id;sensor_type;location;lat;lon;timestamp;temperature;humidity
7472;DHT22;3777;48.722;8.110;2023-08-30T00:00:59;15.70;99.90
7472;DHT22;3777;48.722;8.110;2023-08-30T00:03:26;15.70;99.90
7472;DHT22;3777;48.722;8.110;2023-08-30T00:05:54;15.70;99.90
7472;DHT22;3777;48.722;8.110;2023-08-30T00:08:21;15.70;99.90
7472;DHT22;3777;48.722;8.110;2023-08-30T00:10:48;15.80;99.90
7472;DHT22;3777;48.722;8.110;2023-08-30T00:13:15;15.80;99.90
7472;DHT22;3777;48.722;8.110;2023-08-30T00:15:43;15.80;99.90
7472;DHT22;3777;48.722;8.110;2023-08-30T00:18:09;15.80;99.90
7472;DHT22;3777;48.722;8.110;2023-08-30T00:20:36;15.80;99.90
7472;DHT22;3777;48.722;8.110;2023-08-30T00:23:04;15.80;99.90
7472;DHT22;3777;48.722;8.110;2023-08-30T00:25:31;15.90;99.90
7472;DHT22;3777;48.722;8.110;2023-08-30T00:27:58;15.90;99.90
7472;DHT22;3777;48.722;8.110;2023-08-30T00:30:25;15.90;99.90
7472;DHT22;3777;48.722;8.110;2023-08-30T00:32:51;15.90;99.90
7472;DHT22;3777;48.722;8.110;2023-08-30T00:35:18;16.00;99.90
7472;DHT22;3777;48.722;8.110;2023-08-30T00:37:45;16.00;99.90
7472;DHT22;3777;48.722;8.110;2023-08-30T00:40:13;16.00;99.90
7472;DHT22;3777;48.722;8.110;2023-08-30T00:42:40;16.10;99.90
7472;DHT22;3777;48.722;8.110;2023-08-30T00:45:07;16.00;99.90
7472;DHT22;3777;48.722;8.110;2023-08-30T00:47:34;16.10;99.90
7472;DHT22;3777;48.722;8.110;2023-08-30T00:50:02;16.10;99.90
7472;DHT22;3777;48.722;8.110;2023-08-30T00:52:29;16.10;99.90
7472;DHT22;3777;48.722;8.110;2023-08-30T00:54:55;16.20;99.90
7472;DHT22;3777;48.722;8.110;2023-08-30T00:57:24;16.20;99.90
7472;DHT22;3777;48.722;8.110;2023-08-30T00:59:51;16.20;99.90
7472;DHT22;3777;48.722;8.110;2023-08-30T01:02:19;16.20;99.90
7472;DHT22;3777;48.722;8.110;2023-08-30T01:04:47;16.30;99.90
7472;DHT22;3777;48.722;8.110;2023-08-30T01:07:14;16.30;99.90
7472;DHT22;3777;48.722;8.110;2023-08-30T01:09:41;16.30;99.90
7472;DHT22;3777;48.722;8.110;2023-08-30T01:12:11;16.30;99.90
7472;DHT22;3777;48.722;8.110;2023-08-30T01:14:45;16.40;99.90
7472;DHT22;3777;48.722;8.110;2023-08-30T01:17:17;16.40;99.90
7472;DHT22;3777;48.722;8.110;2023-08-30T01:19:49;16.40;99.90
7472;DHT22;3777;48.722;8.110;2023-08-30T01:22:21;16.40;99.90
7472;DHT22;3777;48.722;8.110;2023-08-30T01:25:00;16.40;99.90
7472;DHT22;3777;48.722;8.110;2023-08-30T01:27:35;16.40;99.90
7472;DHT22;3777;48.722;8.110;2023-08-30T01:30:06;16.40;99.90
7472;DHT22;3777;48.722;8.110;2023-08-30T01:32:34;16.40;99.90
7472;DHT22;3777;48.722;8.110;2023-08-30T01:35:02;16.40;99.90
7472;DHT22;3777;48.722;8.110;2023-08-30T01:37:30;16.40;99.90
7472;DHT22;3777;48.722;8.110;2023-08-30T01:39:57;16.40;99.90
7472;DHT22;3777;48.722;8.110;2023-08-30T01:42:25;16.40;99.90
7472;DHT22;3777;48.722;8.110;2023-08-30T01:44:56;16.40;99.90
7472;DHT22;3777;48.722;8.110;2023-08-30T01:47:27;16.40;99.90
7472;DHT22;3777;48.722;8.110;2023-08-30T01:49:55;16.50;99.90
7472;DHT22;3777;48.722;8.110;2023-08-30T01:52:23;16.40;99.90
7472;DHT22;3777;48.722;8.110;2023-08-30T01:54:51;16.40;99.90
7472;DHT22;3777;48.722;8.110;2023-08-30T01:57:18;16.40;99.90
7472;DHT22;3777;48.722;8.110;2023-08-30T01:59:45;16.40;99.90
7472;DHT22;3777;48.722;8.110;2023-08-30T02:02:13;16.40;99.90
7472;DHT22;3777;48.722;8.110;2023-08-30T02:04:40;16.40;99.90
7472;DHT22;3777;48.722;8.110;2023-08-30T02:07:11;16.40;99.90
7472;DHT22;3777;48.722;8.110;2023-08-30T02:09:48;16.40;99.90
7472;DHT22;3777;48.722;8.110;2023-08-30T02:12:17;16.30;99.90
7472;DHT22;3777;48.722;8.110;2023-08-30T02:14:48;16.30;99.90
7472;DHT22;3777;48.722;8.110;2023-08-30T02:17:17;16.30;99.90
7472;DHT22;3777;48.722;8.110;2023-08-30T02:19:45;16.40;99.90
7472;DHT22;3777;48.722;8.110;2023-08-30T02:22:12;16.40;99.90
7472;DHT22;3777;48.722;8.110;2023-08-30T02:24:39;16.40;99.90
7472;DHT22;3777;48.722;8.110;2023-08-30T02:27:05;16.30;99.90
7472;DHT22;3777;48.722;8.110;2023-08-30T02:29:32;16.30;99.90
7472;DHT22;3777;48.722;8.110;2023-08-30T02:31:59;16.30;99.90
7472;DHT22;3777;48.722;8.110;2023-08-30T02:34:27;16.30;99.90
7472;DHT22;3777;48.722;8.110;2023-08-30T02:36:54;16.30;99.90
7472;DHT22;3777;48.722;8.110;2023-08-30T02:39:21;16.20;99.90
7472;DHT22;3777;48.722;8.110;2023-08-30T02:41:48;16.30;99.90
7472;DHT22;3777;48.722;8.110;2023-08-30T02:44:15;16.30;99.90
7472;DHT22;3777;48.722;8.110;2023-08-30T02:46:42;16.30;99.90
7472;DHT22;3777;48.722;8.110;2023-08-30T02:49:08;16.40;99.90
7472;DHT22;3777;48.722;8.110;2023-08-30T02:51:38;16.60;99.90
7472;DHT22;3777;48.722;8.110;2023-08-30T02:54:05;16.60;99.90
7472;DHT22;3777;48.722;8.110;2023-08-30T02:56:32;16.50;99.90
7472;DHT22;3777;48.722;8.110;2023-08-30T02:58:59;16.50;99.90
7472;DHT22;3777;48.722;8.110;2023-08-30T03:01:25;16.50;99.90
7472;DHT22;3777;48.722;8.110;2023-08-30T03:03:52;16.40;99.90
7472;DHT22;3777;48.722;8.110;2023-08-30T03:06:19;16.30;99.90
7472;DHT22;3777;48.722;8.110;2023-08-30T03:08:47;16.20;99.90
7472;DHT22;3777;48.722;8.110;2023-08-30T03:11:14;16.00;99.90
7472;DHT22;3777;48.722;8.110;2023-08-30T03:13:41;16.00;99.90
7472;DHT22;3777;48.722;8.110;2023-08-30T03:16:11;16.10;99.90
7472;DHT22;3777;48.722;8.110;2023-08-30T03:18:38;16.00;99.90
7472;DHT22;3777;48.722;8.110;2023-08-30T03:21:05;16.10;99.90
7472;DHT22;3777;48.722;8.110;2023-08-30T03:23:33;16.10;99.90
7472;DHT22;3777;48.722;8.110;2023-08-30T03:26:08;16.20;99.90
7472;DHT22;3777;48.722;8.110;2023-08-30T03:28:35;16.20;99.90
7472;DHT22;3777;48.722;8.110;2023-08-30T03:31:10;16.20;99.90
7472;DHT22;3777;48.722;8.110;2023-08-30T03:33:37;16.20;99.90
7472;DHT22;3777;48.722;8.110;2023-08-30T03:36:04;16.20;99.90
7472;DHT22;3777;48.722;8.110;2023-08-30T03:38:31;16.20;99.90
7472;DHT22;3777;48.722;8.110;2023-08-30T03:40:57;16.20;99.90
7472;DHT22;3777;48.722;8.110;2023-08-30T03:43:26;16.20;99.90
7472;DHT22;3777;48.722;8.110;2023-08-30T03:45:52;16.20;99.90
7472;DHT22;3777;48.722;8.110;2023-08-30T03:48:19;16.30;99.90
7472;DHT22;3777;48.722;8.110;2023-08-30T03:50:46;16.20;99.90
7472;DHT22;3777;48.722;8.110;2023-08-30T03:53:13;16.20;99.90
7472;DHT22;3777;48.722;8.110;2023-08-30T03:55:40;16.20;99.90
7472;DHT22;3777;48.722;8.110;2023-08-30T03:58:07;16.20;99.90
7472;DHT22;3777;48.722;8.110;2023-08-30T04:00:37;16.30;99.90
7472;DHT22;3777;48.722;8.110;2023-08-30T04:03:04;16.20;99.90
7472;DHT22;3777;48.722;8.110;2023-08-30T04:05:32;16.20;99.90
7472;DHT22;3777;48.722;8.110;2023-08-30T04:08:00;16.20;99.90
7472;DHT22;3777;48.722;8.110;2023-08-30T04:10:27;16.20;99.90
7472;DHT22;3777;48.722;8.110;2023-08-30T04:12:54;16.20;99.90
7472;DHT22;3777;48.722;8.110;2023-08-30T04:15:21;16.20;99.90
7472;DHT22;3777;48.722;8.110;2023-08-30T04:17:49;16.20;99.90
7472;DHT22;3777;48.722;8.110;2023-08-30T04:20:15;16.20;99.90
7472;DHT22;3777;48.722;8.110;2023-08-30T04:22:42;16.20;99.90
7472;DHT22;3777;48.722;8.110;2023-08-30T04:25:09;16.20;99.90
7472;DHT22;3777;48.722;8.110;2023-08-30T04:27:36;16.20;99.90
7472;DHT22;3777;48.722;8.110;2023-08-30T04:30:03;16.20;99.90
7472;DHT22;3777;48.722;8.110;2023-08-30T04:32:30;16.20;99.90
7472;DHT22;3777;48.722;8.110;2023-08-30T04:34:58;16.20;99.90
7472;DHT22;3777;48.722;8.110;2023-08-30T04:37:29;16.20;99.90
7472;DHT22;3777;48.722;8.110;2023-08-30T04:39:56;16.20;99.90
7472;DHT22;3777;48.722;8.110;2023-08-30T04:42:23;16.20;99.90
7472;DHT22;3777;48.722;8.110;2023-08-30T04:44:50;16.20;99.90
7472;DHT22;3777;48.722;8.110;2023-08-30T04:47:17;16.20;99.90
7472;DHT22;3777;48.722;8.110;2023-08-30T04:49:43;16.20;99.90
7472;DHT22;3777;48.722;8.110;2023-08-30T04:52:12;16.20;99.90
7472;DHT22;3777;48.722;8.110;2023-08-30T04:54:38;16.20;99.90
7472;DHT22;3777;48.722;8.110;2023-08-30T04:57:07;16.20;99.90
7472;DHT22;3777;48.722;8.110;2023-08-30T04:59:33;16.20;99.90
7472;DHT22;3777;48.722;8.110;2023-08-30T05:02:00;16.20;99.90
7472;DHT22;3777;48.722;8.110;2023-08-30T05:04:27;16.30;99.90
7472;DHT22;3777;48.722;8.110;2023-08-30T05:06:54;16.30;99.90
7472;DHT22;3777;48.722;8.110;2023-08-30T05:09:22;16.40;99.90
7472;DHT22;3777;48.722;8.110;2023-08-30T05:11:50;16.40;99.90
7472;DHT22;3777;48.722;8.110;2023-08-30T05:14:17;16.40;99.90
7472;DHT22;3777;48.722;8.110;2023-08-30T05:16:44;16.40;99.90
7472;DHT22;3777;48.722;8.110;2023-08-30T05:19:10;16.40;99.90
7472;DHT22;3777;48.722;8.110;2023-08-30T05:21:37;16.30;99.90
7472;DHT22;3777;48.722;8.110;2023-08-30T05:24:05;16.10;99.90
7472;DHT22;3777;48.722;8.110;2023-08-30T05:26:34;16.10;99.90
7472;DHT22;3777;48.722;8.110;2023-08-30T05:29:00;16.00;99.90
7472;DHT22;3777;48.722;8.110;2023-08-30T05:31:27;16.00;99.90
7472;DHT22;3777;48.722;8.110;2023-08-30T05:33:54;16.00;99.90
7472;DHT22;3777;48.722;8.110;2023-08-30T05:36:21;16.10;99.90
7472;DHT22;3777;48.722;8.110;2023-08-30T05:38:47;16.20;99.90
7472;DHT22;3777;48.722;8.110;2023-08-30T05:41:14;16.30;99.90
7472;DHT22;3777;48.722;8.110;2023-08-30T05:43:43;16.40;99.90
7472;DHT22;3777;48.722;8.110;2023-08-30T05:46:10;16.40;99.90
7472;DHT22;3777;48.722;8.110;2023-08-30T05:48:40;16.50;99.90
7472;DHT22;3777;48.722;8.110;2023-08-30T05:51:07;16.50;99.90
7472;DHT22;3777;48.722;8.110;2023-08-30T05:53:33;16.40;99.90
7472;DHT22;3777;48.722;8.110;2023-08-30T05:56:00;16.40;99.90
7472;DHT22;3777;48.722;8.110;2023-08-30T05:58:27;16.50;99.90
7472;DHT22;3777;48.722;8.110;2023-08-30T06:00:56;16.60;99.90
7472;DHT22;3777;48.722;8.110;2023-08-30T06:03:22;16.70;99.90
7472;DHT22;3777;48.722;8.110;2023-08-30T06:05:49;16.80;99.90
7472;DHT22;3777;48.722;8.110;2023-08-30T06:08:16;17.00;99.90
7472;DHT22;3777;48.722;8.110;2023-08-30T06:10:43;17.00;99.90
7472;DHT22;3777;48.722;8.110;2023-08-30T06:13:10;17.10;99.90
7472;DHT22;3777;48.722;8.110;2023-08-30T06:15:37;17.20;99.90
7472;DHT22;3777;48.722;8.110;2023-08-30T06:18:08;17.30;99.90
7472;DHT22;3777;48.722;8.110;2023-08-30T06:20:35;17.30;99.90
7472;DHT22;3777;48.722;8.110;2023-08-30T06:23:03;17.40;99.90
7472;DHT22;3777;48.722;8.110;2023-08-30T06:25:29;17.50;99.90
7472;DHT22;3777;48.722;8.110;2023-08-30T06:27:57;17.50;99.90
7472;DHT22;3777;48.722;8.110;2023-08-30T06:30:24;17.60;99.90
7472;DHT22;3777;48.722;8.110;2023-08-30T06:32:51;17.70;99.90
7472;DHT22;3777;48.722;8.110;2023-08-30T06:35:19;17.70;99.90
7472;DHT22;3777;48.722;8.110;2023-08-30T06:37:46;17.80;99.90
7472;DHT22;3777;48.722;8.110;2023-08-30T06:40:13;17.80;99.90
7472;DHT22;3777;48.722;8.110;2023-08-30T06:42:40;17.90;99.90
7472;DHT22;3777;48.722;8.110;2023-08-30T06:45:07;18.00;99.90
7472;DHT22;3777;48.722;8.110;2023-08-30T06:47:34;18.10;99.90
7472;DHT22;3777;48.722;8.110;2023-08-30T06:50:01;18.20;99.90
7472;DHT22;3777;48.722;8.110;2023-08-30T06:52:30;18.30;99.90
7472;DHT22;3777;48.722;8.110;2023-08-30T06:54:57;18.40;99.90
7472;DHT22;3777;48.722;8.110;2023-08-30T06:57:24;18.50;99.90
7472;DHT22;3777;48.722;8.110;2023-08-30T06:59:50;18.50;99.90
7472;DHT22;3777;48.722;8.110;2023-08-30T07:02:17;18.60;99.90
7472;DHT22;3777;48.722;8.110;2023-08-30T07:04:45;18.80;99.90
7472;DHT22;3777;48.722;8.110;2023-08-30T07:07:13;18.90;99.90
7472;DHT22;3777;48.722;8.110;2023-08-30T07:09:41;19.00;99.90
7472;DHT22;3777;48.722;8.110;2023-08-30T07:12:08;19.20;99.90
7472;DHT22;3777;48.722;8.110;2023-08-30T07:14:35;19.30;99.90
7472;DHT22;3777;48.722;8.110;2023-08-30T07:17:02;19.50;99.90
7472;DHT22;3777;48.722;8.110;2023-08-30T07:19:29;19.70;99.90
7472;DHT22;3777;48.722;8.110;2023-08-30T07:21:56;19.80;99.90
7472;DHT22;3777;48.722;8.110;2023-08-30T07:24:22;19.90;99.90
7472;DHT22;3777;48.722;8.110;2023-08-30T07:26:50;20.00;99.90
7472;DHT22;3777;48.722;8.110;2023-08-30T07:29:17;20.20;99.90
7472;DHT22;3777;48.722;8.110;2023-08-30T07:31:44;20.30;99.90
7472;DHT22;3777;48.722;8.110;2023-08-30T07:34:11;20.30;99.90
7472;DHT22;3777;48.722;8.110;2023-08-30T07:36:38;20.40;99.90
7472;DHT22;3777;48.722;8.110;2023-08-30T07:39:04;20.50;99.90
7472;DHT22;3777;48.722;8.110;2023-08-30T07:41:33;20.60;99.90
7472;DHT22;3777;48.722;8.110;2023-08-30T07:44:02;20.70;99.90
7472;DHT22;3777;48.722;8.110;2023-08-30T07:46:29;20.80;99.90
7472;DHT22;3777;48.722;8.110;2023-08-30T07:48:55;21.00;99.90
7472;DHT22;3777;48.722;8.110;2023-08-30T07:51:22;21.00;99.90
7472;DHT22;3777;48.722;8.110;2023-08-30T07:53:49;21.20;99.90
7472;DHT22;3777;48.722;8.110;2023-08-30T07:56:16;21.30;99.90
7472;DHT22;3777;48.722;8.110;2023-08-30T07:58:42;21.30;99.90
7472;DHT22;3777;48.722;8.110;2023-08-30T08:01:11;21.30;99.90
7472;DHT22;3777;48.722;8.110;2023-08-30T08:03:37;21.40;99.90
7472;DHT22;3777;48.722;8.110;2023-08-30T08:06:06;21.40;99.90
7472;DHT22;3777;48.722;8.110;2023-08-30T08:08:33;21.50;99.90
7472;DHT22;3777;48.722;8.110;2023-08-30T08:10:59;21.60;99.90
7472;DHT22;3777;48.722;8.110;2023-08-30T08:13:26;21.60;99.90
7472;DHT22;3777;48.722;8.110;2023-08-30T08:15:55;21.50;99.90
7472;DHT22;3777;48.722;8.110;2023-08-30T08:18:24;21.30;99.90
7472;DHT22;3777;48.722;8.110;2023-08-30T08:20:51;21.10;99.90
7472;DHT22;3777;48.722;8.110;2023-08-30T08:23:18;20.80;99.90
7472;DHT22;3777;48.722;8.110;2023-08-30T08:25:45;21.20;99.90
7472;DHT22;3777;48.722;8.110;2023-08-30T08:28:11;21.50;99.90
7472;DHT22;3777;48.722;8.110;2023-08-30T08:30:38;21.30;99.90
7472;DHT22;3777;48.722;8.110;2023-08-30T08:33:05;21.50;99.90
7472;DHT22;3777;48.722;8.110;2023-08-30T08:35:33;21.70;99.90
7472;DHT22;3777;48.722;8.110;2023-08-30T08:38:00;21.90;99.90
7472;DHT22;3777;48.722;8.110;2023-08-30T08:40:26;22.20;99.90
7472;DHT22;3777;48.722;8.110;2023-08-30T08:42:54;22.30;99.90
7472;DHT22;3777;48.722;8.110;2023-08-30T08:45:22;22.50;99.90
7472;DHT22;3777;48.722;8.110;2023-08-30T08:47:50;22.70;99.90
7472;DHT22;3777;48.722;8.110;2023-08-30T08:50:18;22.90;99.90
7472;DHT22;3777;48.722;8.110;2023-08-30T08:52:46;23.10;99.90
7472;DHT22;3777;48.722;8.110;2023-08-30T08:55:14;23.40;99.90
7472;DHT22;3777;48.722;8.110;2023-08-30T08:57:41;23.20;99.90
7472;DHT22;3777;48.722;8.110;2023-08-30T09:00:09;23.50;99.90
7472;DHT22;3777;48.722;8.110;2023-08-30T09:02:36;23.80;99.90
7472;DHT22;3777;48.722;8.110;2023-08-30T09:05:05;23.90;99.90
7472;DHT22;3777;48.722;8.110;2023-08-30T09:07:33;24.00;99.90
7472;DHT22;3777;48.722;8.110;2023-08-30T09:10:01;24.00;99.90
7472;DHT22;3777;48.722;8.110;2023-08-30T09:12:32;24.40;99.90
7472;DHT22;3777;48.722;8.110;2023-08-30T09:14:59;24.90;99.90
7472;DHT22;3777;48.722;8.110;2023-08-30T09:17:35;25.40;99.90
7472;DHT22;3777;48.722;8.110;2023-08-30T09:20:09;25.50;99.90
7472;DHT22;3777;48.722;8.110;2023-08-30T09:22:37;25.60;99.90
7472;DHT22;3777;48.722;8.110;2023-08-30T09:25:07;25.50;99.90
7472;DHT22;3777;48.722;8.110;2023-08-30T09:27:35;25.60;99.90
7472;DHT22;3777;48.722;8.110;2023-08-30T09:30:04;25.50;99.90
7472;DHT22;3777;48.722;8.110;2023-08-30T09:32:31;25.70;99.90
7472;DHT22;3777;48.722;8.110;2023-08-30T09:34:58;26.00;99.90
7472;DHT22;3777;48.722;8.110;2023-08-30T09:37:25;26.30;99.90
7472;DHT22;3777;48.722;8.110;2023-08-30T09:39:52;26.30;99.90
7472;DHT22;3777;48.722;8.110;2023-08-30T09:42:20;26.00;99.90
7472;DHT22;3777;48.722;8.110;2023-08-30T09:44:47;26.00;99.90
7472;DHT22;3777;48.722;8.110;2023-08-30T09:47:14;26.20;99.90
7472;DHT22;3777;48.722;8.110;2023-08-30T09:49:43;26.20;99.90
7472;DHT22;3777;48.722;8.110;2023-08-30T09:52:14;26.10;99.90
7472;DHT22;3777;48.722;8.110;2023-08-30T09:54:42;25.90;99.90
7472;DHT22;3777;48.722;8.110;2023-08-30T09:57:09;25.60;99.90
7472;DHT22;3777;48.722;8.110;2023-08-30T09:59:39;26.20;99.90
7472;DHT22;3777;48.722;8.110;2023-08-30T10:02:08;25.80;99.90
7472;DHT22;3777;48.722;8.110;2023-08-30T10:04:38;25.40;99.90
7472;DHT22;3777;48.722;8.110;2023-08-30T10:07:07;26.20;99.90
7472;DHT22;3777;48.722;8.110;2023-08-30T10:09:34;26.40;99.90
7472;DHT22;3777;48.722;8.110;2023-08-30T10:12:05;27.00;99.90
7472;DHT22;3777;48.722;8.110;2023-08-30T10:14:32;25.70;99.90
7472;DHT22;3777;48.722;8.110;2023-08-30T10:17:02;25.90;99.90
7472;DHT22;3777;48.722;8.110;2023-08-30T10:19:29;26.90;99.90
7472;DHT22;3777;48.722;8.110;2023-08-30T10:22:00;27.80;99.90
7472;DHT22;3777;48.722;8.110;2023-08-30T10:24:30;28.10;99.90
7472;DHT22;3777;48.722;8.110;2023-08-30T10:27:00;28.40;99.90
7472;DHT22;3777;48.722;8.110;2023-08-30T10:29:30;28.00;99.90
7472;DHT22;3777;48.722;8.110;2023-08-30T10:32:03;28.20;99.90
7472;DHT22;3777;48.722;8.110;2023-08-30T10:34:32;29.00;99.90
7472;DHT22;3777;48.722;8.110;2023-08-30T10:37:00;29.30;99.90
7472;DHT22;3777;48.722;8.110;2023-08-30T10:39:33;30.20;99.90
7472;DHT22;3777;48.722;8.110;2023-08-30T10:42:07;31.10;99.90
7472;DHT22;3777;48.722;8.110;2023-08-30T10:44:34;31.80;98.60
7472;DHT22;3777;48.722;8.110;2023-08-30T10:47:03;32.60;97.00
7472;DHT22;3777;48.722;8.110;2023-08-30T10:49:39;31.00;94.00
7472;DHT22;3777;48.722;8.110;2023-08-30T10:52:12;30.80;98.40
7472;DHT22;3777;48.722;8.110;2023-08-30T10:54:38;29.80;95.40
7472;DHT22;3777;48.722;8.110;2023-08-30T10:57:12;29.50;97.40
7472;DHT22;3777;48.722;8.110;2023-08-30T10:59:39;30.60;96.90
7472;DHT22;3777;48.722;8.110;2023-08-30T11:02:07;31.30;95.70
7472;DHT22;3777;48.722;8.110;2023-08-30T11:04:39;32.20;93.90
7472;DHT22;3777;48.722;8.110;2023-08-30T11:07:07;32.70;90.80
7472;DHT22;3777;48.722;8.110;2023-08-30T11:09:40;32.00;93.90
7472;DHT22;3777;48.722;8.110;2023-08-30T11:12:06;31.00;94.70
7472;DHT22;3777;48.722;8.110;2023-08-30T11:14:33;29.90;92.00
7472;DHT22;3777;48.722;8.110;2023-08-30T11:17:00;28.30;95.10
7472;DHT22;3777;48.722;8.110;2023-08-30T11:19:31;28.20;96.60
7472;DHT22;3777;48.722;8.110;2023-08-30T11:21:57;28.00;96.00
7472;DHT22;3777;48.722;8.110;2023-08-30T11:24:24;27.90;99.00
7472;DHT22;3777;48.722;8.110;2023-08-30T11:26:53;27.40;98.90
7472;DHT22;3777;48.722;8.110;2023-08-30T11:29:20;27.10;98.60
7472;DHT22;3777;48.722;8.110;2023-08-30T11:31:46;26.40;98.20
7472;DHT22;3777;48.722;8.110;2023-08-30T11:34:13;26.20;99.90
7472;DHT22;3777;48.722;8.110;2023-08-30T11:36:41;25.80;99.90
7472;DHT22;3777;48.722;8.110;2023-08-30T11:39:09;25.90;99.90
7472;DHT22;3777;48.722;8.110;2023-08-30T11:41:38;25.80;99.90
7472;DHT22;3777;48.722;8.110;2023-08-30T11:44:05;25.60;99.90
7472;DHT22;3777;48.722;8.110;2023-08-30T11:46:32;25.40;99.90
7472;DHT22;3777;48.722;8.110;2023-08-30T11:48:59;25.50;99.90
7472;DHT22;3777;48.722;8.110;2023-08-30T11:51:26;25.60;99.90
7472;DHT22;3777;48.722;8.110;2023-08-30T11:53:54;25.50;99.90
7472;DHT22;3777;48.722;8.110;2023-08-30T11:56:22;25.60;99.90
7472;DHT22;3777;48.722;8.110;2023-08-30T11:58:49;25.80;99.90
7472;DHT22;3777;48.722;8.110;2023-08-30T12:01:18;26.00;99.90
7472;DHT22;3777;48.722;8.110;2023-08-30T12:03:45;25.30;99.90
7472;DHT22;3777;48.722;8.110;2023-08-30T12:06:16;25.30;99.90
7472;DHT22;3777;48.722;8.110;2023-08-30T12:08:43;25.40;99.90
7472;DHT22;3777;48.722;8.110;2023-08-30T12:11:19;25.40;99.90
7472;DHT22;3777;48.722;8.110;2023-08-30T12:13:46;25.40;99.90
7472;DHT22;3777;48.722;8.110;2023-08-30T12:16:17;25.30;99.90
7472;DHT22;3777;48.722;8.110;2023-08-30T12:18:44;25.30;99.90
7472;DHT22;3777;48.722;8.110;2023-08-30T12:21:13;25.30;99.90
7472;DHT22;3777;48.722;8.110;2023-08-30T12:23:40;25.30;99.90
7472;DHT22;3777;48.722;8.110;2023-08-30T12:26:07;25.10;99.90
7472;DHT22;3777;48.722;8.110;2023-08-30T12:28:37;25.10;99.90
7472;DHT22;3777;48.722;8.110;2023-08-30T12:31:04;25.00;99.90
7472;DHT22;3777;48.722;8.110;2023-08-30T12:33:33;25.10;99.90
7472;DHT22;3777;48.722;8.110;2023-08-30T12:36:01;25.20;99.90
7472;DHT22;3777;48.722;8.110;2023-08-30T12:38:29;25.30;99.90
7472;DHT22;3777;48.722;8.110;2023-08-30T12:40:56;25.40;99.90
7472;DHT22;3777;48.722;8.110;2023-08-30T12:43:23;25.60;99.90
7472;DHT22;3777;48.722;8.110;2023-08-30T12:45:51;25.50;99.90
7472;DHT22;3777;48.722;8.110;2023-08-30T12:48:18;25.60;99.90
7472;DHT22;3777;48.722;8.110;2023-08-30T12:50:46;25.40;99.90
7472;DHT22;3777;48.722;8.110;2023-08-30T12:53:14;25.20;99.90
7472;DHT22;3777;48.722;8.110;2023-08-30T12:55:43;25.20;99.90
7472;DHT22;3777;48.722;8.110;2023-08-30T12:58:10;25.10;99.90
7472;DHT22;3777;48.722;8.110;2023-08-30T13:00:39;25.10;99.90
7472;DHT22;3777;48.722;8.110;2023-08-30T13:03:07;25.10;99.90
7472;DHT22;3777;48.722;8.110;2023-08-30T13:05:34;25.00;99.90
7472;DHT22;3777;48.722;8.110;2023-08-30T13:08:02;24.90;99.90
7472;DHT22;3777;48.722;8.110;2023-08-30T13:10:29;25.00;99.90
7472;DHT22;3777;48.722;8.110;2023-08-30T13:12:55;25.30;99.90
7472;DHT22;3777;48.722;8.110;2023-08-30T13:15:22;25.50;99.90
7472;DHT22;3777;48.722;8.110;2023-08-30T13:17:49;25.50;99.90
7472;DHT22;3777;48.722;8.110;2023-08-30T13:20:17;25.50;99.90
7472;DHT22;3777;48.722;8.110;2023-08-30T13:22:45;25.50;99.90
7472;DHT22;3777;48.722;8.110;2023-08-30T13:25:12;25.50;99.90
7472;DHT22;3777;48.722;8.110;2023-08-30T13:27:39;25.30;99.90
7472;DHT22;3777;48.722;8.110;2023-08-30T13:30:06;25.30;99.90
7472;DHT22;3777;48.722;8.110;2023-08-30T13:32:33;25.20;99.90
7472;DHT22;3777;48.722;8.110;2023-08-30T13:35:01;25.10;99.90
7472;DHT22;3777;48.722;8.110;2023-08-30T13:37:29;25.10;99.90
7472;DHT22;3777;48.722;8.110;2023-08-30T13:39:56;25.10;99.90
7472;DHT22;3777;48.722;8.110;2023-08-30T13:42:23;25.00;99.90
7472;DHT22;3777;48.722;8.110;2023-08-30T13:44:53;24.90;99.90
7472;DHT22;3777;48.722;8.110;2023-08-30T13:47:20;24.80;99.90
7472;DHT22;3777;48.722;8.110;2023-08-30T13:49:46;24.80;99.90
7472;DHT22;3777;48.722;8.110;2023-08-30T13:52:13;24.50;99.90
7472;DHT22;3777;48.722;8.110;2023-08-30T13:54:42;24.40;99.90
7472;DHT22;3777;48.722;8.110;2023-08-30T13:57:09;24.30;99.90
7472;DHT22;3777;48.722;8.110;2023-08-30T13:59:36;24.30;99.90
7472;DHT22;3777;48.722;8.110;2023-08-30T14:02:04;24.40;99.90
7472;DHT22;3777;48.722;8.110;2023-08-30T14:04:30;24.40;99.90
7472;DHT22;3777;48.722;8.110;2023-08-30T14:06:59;24.30;99.90
7472;DHT22;3777;48.722;8.110;2023-08-30T14:09:26;24.30;99.90
7472;DHT22;3777;48.722;8.110;2023-08-30T14:11:54;24.40;99.90
7472;DHT22;3777;48.722;8.110;2023-08-30T14:14:21;24.30;99.90
7472;DHT22;3777;48.722;8.110;2023-08-30T14:16:48;24.40;99.90
7472;DHT22;3777;48.722;8.110;2023-08-30T14:19:15;24.50;99.90
7472;DHT22;3777;48.722;8.110;2023-08-30T14:21:44;24.40;99.90
7472;DHT22;3777;48.722;8.110;2023-08-30T14:24:11;24.50;99.90
7472;DHT22;3777;48.722;8.110;2023-08-30T14:26:38;24.60;99.90
7472;DHT22;3777;48.722;8.110;2023-08-30T14:29:06;24.60;99.90
7472;DHT22;3777;48.722;8.110;2023-08-30T14:31:33;24.40;99.90
7472;DHT22;3777;48.722;8.110;2023-08-30T14:34:00;24.70;99.90
7472;DHT22;3777;48.722;8.110;2023-08-30T14:36:28;24.50;99.90
7472;DHT22;3777;48.722;8.110;2023-08-30T14:38:55;24.30;99.90
7472;DHT22;3777;48.722;8.110;2023-08-30T14:41:21;24.00;99.90
7472;DHT22;3777;48.722;8.110;2023-08-30T14:43:48;23.90;99.90
7472;DHT22;3777;48.722;8.110;2023-08-30T14:46:16;23.80;99.90
7472;DHT22;3777;48.722;8.110;2023-08-30T14:48:45;23.60;99.90
7472;DHT22;3777;48.722;8.110;2023-08-30T14:51:12;23.70;99.90
7472;DHT22;3777;48.722;8.110;2023-08-30T14:53:38;23.70;99.90
7472;DHT22;3777;48.722;8.110;2023-08-30T14:56:05;23.70;99.90
7472;DHT22;3777;48.722;8.110;2023-08-30T14:58:37;23.70;99.90
7472;DHT22;3777;48.722;8.110;2023-08-30T15:01:04;23.70;99.90
7472;DHT22;3777;48.722;8.110;2023-08-30T15:03:32;23.60;99.90
7472;DHT22;3777;48.722;8.110;2023-08-30T15:06:00;23.60;99.90
7472;DHT22;3777;48.722;8.110;2023-08-30T15:08:27;23.60;99.90
7472;DHT22;3777;48.722;8.110;2023-08-30T15:10:54;23.70;99.90
7472;DHT22;3777;48.722;8.110;2023-08-30T15:13:21;23.80;99.90
7472;DHT22;3777;48.722;8.110;2023-08-30T15:15:48;23.90;99.90
7472;DHT22;3777;48.722;8.110;2023-08-30T15:18:15;24.00;99.90
7472;DHT22;3777;48.722;8.110;2023-08-30T15:20:43;24.10;99.90
7472;DHT22;3777;48.722;8.110;2023-08-30T15:23:13;24.10;99.90
7472;DHT22;3777;48.722;8.110;2023-08-30T15:25:43;23.80;99.90
7472;DHT22;3777;48.722;8.110;2023-08-30T15:28:10;23.80;99.90
7472;DHT22;3777;48.722;8.110;2023-08-30T15:30:37;23.70;99.90
7472;DHT22;3777;48.722;8.110;2023-08-30T15:33:07;23.70;99.90
7472;DHT22;3777;48.722;8.110;2023-08-30T15:35:36;23.80;99.90
7472;DHT22;3777;48.722;8.110;2023-08-30T15:38:05;23.90;99.90
7472;DHT22;3777;48.722;8.110;2023-08-30T15:40:31;23.70;99.90
7472;DHT22;3777;48.722;8.110;2023-08-30T15:42:59;23.70;99.90
7472;DHT22;3777;48.722;8.110;2023-08-30T15:45:26;23.80;99.90
7472;DHT22;3777;48.722;8.110;2023-08-30T15:47:53;23.80;99.90
7472;DHT22;3777;48.722;8.110;2023-08-30T15:50:20;23.90;99.90
7472;DHT22;3777;48.722;8.110;2023-08-30T15:52:47;23.90;99.90
7472;DHT22;3777;48.722;8.110;2023-08-30T15:55:15;23.90;99.90
7472;DHT22;3777;48.722;8.110;2023-08-30T15:57:42;23.90;99.90
7472;DHT22;3777;48.722;8.110;2023-08-30T16:00:10;23.80;99.90
7472;DHT22;3777;48.722;8.110;2023-08-30T16:02:37;23.80;99.90
7472;DHT22;3777;48.722;8.110;2023-08-30T16:05:05;23.90;99.90